createdAt,value
2018-12-30T00:02:18.339Z,17.07
2018-12-30T00:04:43.656Z,17.09
2018-12-30T00:07:10.309Z,17.06
2018-12-30T00:09:36.963Z,17.05
2018-12-30T00:12:03.675Z,17.05
2018-12-30T00:14:30.378Z,17.04
2018-12-30T00:16:57.074Z,17.04
2018-12-30T00:19:23.729Z,17.06
2018-12-30T00:21:50.395Z,17.05
2018-12-30T00:24:17.066Z,17.05
2018-12-30T00:26:43.786Z,17.03
2018-12-30T00:29:10.440Z,17.06
2018-12-30T00:31:37.105Z,16.99
2018-12-30T00:34:03.825Z,17.01
2018-12-30T00:36:30.486Z,17.00
2018-12-30T00:38:57.144Z,17.00
2018-12-30T00:41:23.804Z,16.98
2018-12-30T00:43:50.475Z,16.99
2018-12-30T00:46:17.170Z,16.98
2018-12-30T00:48:43.827Z,16.97
2018-12-30T00:51:17.010Z,16.97
2018-12-30T00:53:37.195Z,16.97
2018-12-30T00:56:03.865Z,16.97
2018-12-30T00:58:31.107Z,16.99
2018-12-30T01:00:57.241Z,16.98
2018-12-30T01:03:23.908Z,16.96
2018-12-30T01:05:50.570Z,16.94
2018-12-30T01:08:17.228Z,16.94
2018-12-30T01:10:43.891Z,16.95
2018-12-30T01:13:10.552Z,16.93
2018-12-30T01:15:37.202Z,16.93
2018-12-30T01:18:03.867Z,16.93
2018-12-30T01:20:30.523Z,16.91
2018-12-30T01:22:57.183Z,16.93
2018-12-30T01:25:23.846Z,16.92
2018-12-30T01:27:50.561Z,16.90
2018-12-30T01:30:17.224Z,16.90
2018-12-30T01:32:43.889Z,16.90
2018-12-30T01:35:10.543Z,16.90
2018-12-30T01:37:38.410Z,16.90
2018-12-30T01:40:05.077Z,16.90
2018-12-30T01:42:31.728Z,16.89
2018-12-30T01:44:58.415Z,16.89
2018-12-30T01:47:25.089Z,16.87
2018-12-30T01:49:51.759Z,16.87
2018-12-30T01:52:18.410Z,16.87
2018-12-30T01:54:45.120Z,16.89
2018-12-30T01:57:11.838Z,16.86
2018-12-30T01:59:38.498Z,16.90
2018-12-30T02:02:05.156Z,16.88
2018-12-30T02:04:31.870Z,16.89
2018-12-30T02:06:58.526Z,16.86
2018-12-30T02:09:25.198Z,16.89
2018-12-30T02:11:51.848Z,16.84
2018-12-30T02:14:18.573Z,16.87
2018-12-30T02:16:45.239Z,16.85
2018-12-30T02:19:11.900Z,16.87
2018-12-30T02:21:41.172Z,16.83
2018-12-30T02:24:05.229Z,16.86
2018-12-30T02:26:31.890Z,16.85
2018-12-30T02:28:58.612Z,16.86
2018-12-30T02:31:25.276Z,16.83
2018-12-30T02:33:51.929Z,16.85
2018-12-30T02:36:18.596Z,16.82
2018-12-30T02:38:45.256Z,16.81
2018-12-30T02:41:11.943Z,16.79
2018-12-30T02:43:38.593Z,16.82
2018-12-30T02:46:05.321Z,16.76
2018-12-30T02:48:31.969Z,16.80
2018-12-30T02:50:58.707Z,16.78
2018-12-30T02:53:25.357Z,16.79
2018-12-30T02:55:52.023Z,16.75
2018-12-30T02:58:18.675Z,16.78
2018-12-30T03:00:45.355Z,16.77
2018-12-30T03:03:12.016Z,16.77
2018-12-30T03:05:38.680Z,16.75
2018-12-30T03:08:05.342Z,16.75
2018-12-30T03:10:32.005Z,16.71
2018-12-30T03:12:58.719Z,16.73
2018-12-30T03:15:25.380Z,16.69
2018-12-30T03:17:52.063Z,16.69
2018-12-30T03:20:18.708Z,16.69
2018-12-30T03:22:45.426Z,16.67
2018-12-30T03:25:12.112Z,16.67
2018-12-30T03:27:38.829Z,16.68
2018-12-30T03:30:05.483Z,16.65
2018-12-30T03:32:32.158Z,16.63
2018-12-30T03:34:58.819Z,16.62
2018-12-30T03:37:26.657Z,16.62
2018-12-30T03:39:52.168Z,16.60
2018-12-30T03:42:20.320Z,16.57
2018-12-30T03:44:45.553Z,16.56
2018-12-30T03:47:12.211Z,16.55
2018-12-30T03:49:38.880Z,16.57
2018-12-30T03:52:08.471Z,16.56
2018-12-30T03:54:32.297Z,16.53
2018-12-30T03:56:58.962Z,16.51
2018-12-30T03:59:25.630Z,16.50
2018-12-30T04:01:52.303Z,16.48
2018-12-30T04:04:19.029Z,16.51
2018-12-30T04:06:45.685Z,16.49
2018-12-30T04:09:12.338Z,16.48
2018-12-30T04:11:39.007Z,16.44
2018-12-30T04:14:05.659Z,16.45
2018-12-30T04:16:32.372Z,16.43
2018-12-30T04:18:59.042Z,16.42
2018-12-30T04:21:25.692Z,16.44
2018-12-30T04:23:52.362Z,16.41
2018-12-30T04:26:19.015Z,16.41
2018-12-30T04:28:45.742Z,16.42
2018-12-30T04:31:12.404Z,16.38
2018-12-30T04:33:39.071Z,16.43
2018-12-30T04:36:05.718Z,16.38
2018-12-30T04:38:32.424Z,16.41
2018-12-30T04:40:59.166Z,16.39
2018-12-30T04:43:25.873Z,16.37
2018-12-30T04:45:52.523Z,16.37
2018-12-30T04:48:19.219Z,16.39
2018-12-30T04:50:45.926Z,16.37
2018-12-30T04:53:12.598Z,16.37
2018-12-30T04:55:39.402Z,16.38
2018-12-30T04:58:06.059Z,16.41
2018-12-30T05:00:32.749Z,16.40
2018-12-30T05:02:59.410Z,16.41
2018-12-30T05:05:26.060Z,16.36
2018-12-30T05:07:52.774Z,16.39
2018-12-30T05:10:21.461Z,16.38
2018-12-30T05:12:48.157Z,16.38
2018-12-30T05:15:14.830Z,16.38
2018-12-30T05:17:41.507Z,16.42
2018-12-30T05:20:08.151Z,16.20
2018-12-30T05:22:34.817Z,16.48
2018-12-30T05:25:01.485Z,16.63
2018-12-30T05:27:28.157Z,16.71
2018-12-30T05:29:54.818Z,16.55
2018-12-30T05:32:21.475Z,16.50
2018-12-30T05:34:48.229Z,16.44
2018-12-30T05:37:17.591Z,16.39
2018-12-30T05:39:44.251Z,16.34
2018-12-30T05:42:11.074Z,16.32
2018-12-30T05:44:37.785Z,16.31
2018-12-30T05:47:04.391Z,16.29
2018-12-30T05:49:31.063Z,16.28
2018-12-30T05:51:57.730Z,16.27
2018-12-30T05:54:24.460Z,16.24
2018-12-30T05:56:51.195Z,16.26
2018-12-30T05:59:17.867Z,16.29
2018-12-30T06:01:44.521Z,16.29
2018-12-30T06:04:11.293Z,16.29
2018-12-30T06:06:37.950Z,16.32
2018-12-30T06:09:04.667Z,16.32
2018-12-30T06:11:31.315Z,16.31
2018-12-30T06:13:58.022Z,16.30
2018-12-30T06:16:24.757Z,16.30
2018-12-30T06:18:51.475Z,16.28
2018-12-30T06:21:18.201Z,16.34
2018-12-30T06:23:44.904Z,16.30
2018-12-30T06:26:11.608Z,16.29
2018-12-30T06:28:38.318Z,16.31
2018-12-30T06:31:04.969Z,16.30
2018-12-30T06:33:31.663Z,16.30
2018-12-30T06:35:58.431Z,16.29
2018-12-30T06:38:25.144Z,16.28
2018-12-30T06:40:51.843Z,16.30
2018-12-30T06:43:18.484Z,16.28
2018-12-30T06:45:45.136Z,16.29
2018-12-30T06:48:11.869Z,16.30
2018-12-30T06:50:38.512Z,16.29
2018-12-30T06:53:05.213Z,16.28
2018-12-30T06:55:31.916Z,16.29
2018-12-30T06:57:58.634Z,16.30
2018-12-30T07:00:25.286Z,16.30
2018-12-30T07:02:51.947Z,16.28
2018-12-30T07:05:18.666Z,16.28
2018-12-30T07:07:45.334Z,16.26
2018-12-30T07:10:11.998Z,16.26
2018-12-30T07:12:38.654Z,16.24
2018-12-30T07:15:05.356Z,16.27
2018-12-30T07:17:32.004Z,16.27
2018-12-30T07:19:58.672Z,16.29
2018-12-30T07:22:25.411Z,16.26
2018-12-30T07:24:52.073Z,16.29
2018-12-30T07:27:18.721Z,16.27
2018-12-30T07:29:45.406Z,16.28
2018-12-30T07:32:12.273Z,16.26
2018-12-30T07:34:38.900Z,16.28
2018-12-30T07:37:05.566Z,16.23
2018-12-30T07:39:32.306Z,16.26
2018-12-30T07:41:59.050Z,16.23
2018-12-30T07:44:25.699Z,16.26
2018-12-30T07:46:52.434Z,16.23
2018-12-30T07:49:19.151Z,16.25
2018-12-30T07:51:45.828Z,16.25
2018-12-30T07:54:12.546Z,16.23
2018-12-30T07:56:39.192Z,16.24
2018-12-30T07:59:05.845Z,16.25
2018-12-30T08:01:32.503Z,16.22
2018-12-30T08:03:59.230Z,16.23
2018-12-30T08:06:25.919Z,16.22
2018-12-30T08:08:52.580Z,16.26
2018-12-30T08:11:19.292Z,16.24
2018-12-30T08:13:45.960Z,16.24
2018-12-30T08:16:12.670Z,16.24
2018-12-30T08:18:39.333Z,16.27
2018-12-30T08:21:06.008Z,16.23
2018-12-30T08:23:32.710Z,16.26
2018-12-30T08:25:59.371Z,16.25
2018-12-30T08:28:26.089Z,16.24
2018-12-30T08:30:52.737Z,16.25
2018-12-30T08:33:19.397Z,16.27
2018-12-30T08:35:46.055Z,16.28
2018-12-30T08:38:12.711Z,16.28
2018-12-30T08:40:39.423Z,16.27
2018-12-30T08:43:06.087Z,16.27
2018-12-30T08:45:32.780Z,16.25
2018-12-30T08:47:59.425Z,16.26
2018-12-30T08:50:26.133Z,16.28
2018-12-30T08:52:52.786Z,16.22
2018-12-30T08:55:19.445Z,16.26
2018-12-30T08:57:46.120Z,16.25
2018-12-30T09:00:12.903Z,16.20
2018-12-30T09:02:39.734Z,16.24
2018-12-30T09:05:06.437Z,16.24
2018-12-30T09:07:33.086Z,16.22
2018-12-30T09:09:59.756Z,16.21
2018-12-30T09:12:26.455Z,16.21
2018-12-30T09:14:53.120Z,16.20
2018-12-30T09:17:19.772Z,16.21
2018-12-30T09:19:46.436Z,16.17
2018-12-30T09:22:13.139Z,16.17
2018-12-30T09:24:39.783Z,16.16
2018-12-30T09:27:06.444Z,16.15
2018-12-30T09:29:33.097Z,16.15
2018-12-30T09:31:59.791Z,16.15
2018-12-30T09:34:26.458Z,16.14
2018-12-30T09:36:53.385Z,16.16
2018-12-30T09:39:19.834Z,16.14
2018-12-30T09:41:46.486Z,16.12
2018-12-30T09:44:13.192Z,16.12
2018-12-30T09:46:39.847Z,16.14
2018-12-30T09:49:06.564Z,16.14
2018-12-30T09:51:33.210Z,16.13
2018-12-30T09:53:59.871Z,16.16
2018-12-30T09:56:26.543Z,16.17
2018-12-30T09:58:53.253Z,16.20
2018-12-30T10:01:19.905Z,16.20
2018-12-30T10:03:46.616Z,16.25
2018-12-30T10:06:13.331Z,16.22
2018-12-30T10:08:39.982Z,16.23
2018-12-30T10:11:06.689Z,16.25
2018-12-30T10:13:33.341Z,16.26
2018-12-30T10:16:00.027Z,16.26
2018-12-30T10:18:26.700Z,16.27
2018-12-30T10:20:53.363Z,16.26
2018-12-30T10:23:20.083Z,16.28
2018-12-30T10:25:46.844Z,16.24
2018-12-30T10:28:13.553Z,16.29
2018-12-30T10:30:40.204Z,16.28
2018-12-30T10:33:06.923Z,16.28
2018-12-30T10:35:33.641Z,16.27
2018-12-30T10:38:00.299Z,16.31
2018-12-30T10:40:26.959Z,16.28
2018-12-30T10:42:53.631Z,16.27
2018-12-30T10:45:20.335Z,16.28
2018-12-30T10:47:47.024Z,16.31
2018-12-30T10:50:13.678Z,16.30
2018-12-30T10:52:40.466Z,16.29
2018-12-30T10:55:07.124Z,16.28
2018-12-30T10:57:33.853Z,16.29
2018-12-30T11:00:00.561Z,16.29
2018-12-30T11:02:27.223Z,16.30
2018-12-30T11:04:53.935Z,16.30
2018-12-30T11:07:20.653Z,16.29
2018-12-30T11:09:47.302Z,16.28
2018-12-30T11:12:13.958Z,16.29
2018-12-30T11:14:40.645Z,16.29
2018-12-30T11:17:07.321Z,16.28
2018-12-30T11:19:33.979Z,16.30
2018-12-30T11:22:00.686Z,16.29
2018-12-30T11:24:27.344Z,16.30
2018-12-30T11:26:54.148Z,16.31
2018-12-30T11:29:20.821Z,16.29
2018-12-30T11:31:47.523Z,16.30
2018-12-30T11:34:14.231Z,16.30
2018-12-30T11:36:40.883Z,16.31
2018-12-30T11:39:07.599Z,16.32
2018-12-30T11:41:34.275Z,16.34
2018-12-30T11:44:00.985Z,16.33
2018-12-30T11:46:27.704Z,16.36
2018-12-30T11:48:54.352Z,16.34
2018-12-30T11:51:21.070Z,16.34
2018-12-30T11:53:47.728Z,16.36
2018-12-30T11:56:14.433Z,16.37
2018-12-30T11:58:41.155Z,16.36
2018-12-30T12:01:07.804Z,16.36
2018-12-30T12:03:34.518Z,16.37
2018-12-30T12:06:01.359Z,16.38
2018-12-30T12:08:28.082Z,16.40
2018-12-30T12:10:54.748Z,16.41
2018-12-30T12:13:21.561Z,16.40
2018-12-30T12:15:48.227Z,16.39
2018-12-30T12:18:14.924Z,16.43
2018-12-30T12:20:41.632Z,16.41
2018-12-30T12:23:08.347Z,16.46
2018-12-30T12:25:35.005Z,16.45
2018-12-30T12:28:01.723Z,16.45
2018-12-30T12:30:28.368Z,16.46
2018-12-30T12:32:55.041Z,16.43
2018-12-30T12:35:21.742Z,16.47
2018-12-30T12:37:48.391Z,16.45
2018-12-30T12:40:15.118Z,16.44
2018-12-30T12:42:41.802Z,16.47
2018-12-30T12:45:08.450Z,16.48
2018-12-30T12:47:35.134Z,16.48
2018-12-30T12:50:01.841Z,16.45
2018-12-30T12:52:28.554Z,16.49
2018-12-30T12:54:55.206Z,16.48
2018-12-30T12:57:21.906Z,16.47
2018-12-30T12:59:48.572Z,16.47
2018-12-30T13:02:15.311Z,16.48
2018-12-30T13:04:41.975Z,16.52
2018-12-30T13:07:08.636Z,16.49
2018-12-30T13:09:35.303Z,16.52
2018-12-30T13:12:01.976Z,16.49
2018-12-30T13:14:28.642Z,16.51
2018-12-30T13:16:55.372Z,16.52
2018-12-30T13:19:22.022Z,16.49
2018-12-30T13:21:48.687Z,16.48
2018-12-30T13:24:15.349Z,16.14
2018-12-30T13:26:42.058Z,16.65
2018-12-30T13:29:08.773Z,16.85
2018-12-30T13:31:35.429Z,16.82
2018-12-30T13:34:02.140Z,16.66
2018-12-30T13:36:28.846Z,16.64
2018-12-30T13:38:58.506Z,16.56
2018-12-30T13:41:25.197Z,16.52
2018-12-30T13:43:51.853Z,16.47
2018-12-30T13:46:18.567Z,16.45
2018-12-30T13:48:45.215Z,16.43
2018-12-30T13:51:11.911Z,16.38
2018-12-30T13:53:40.802Z,16.42
2018-12-30T13:56:07.454Z,16.41
2018-12-30T13:58:34.112Z,16.41
2018-12-30T14:01:00.779Z,16.40
2018-12-30T14:03:27.448Z,16.39
2018-12-30T14:05:54.106Z,16.37
2018-12-30T14:08:20.775Z,16.34
2018-12-30T14:10:47.434Z,16.31
2018-12-30T14:13:14.103Z,16.31
2018-12-30T14:15:40.748Z,16.31
2018-12-30T14:18:07.463Z,16.28
2018-12-30T14:20:34.068Z,16.28
2018-12-30T14:23:00.736Z,16.26
2018-12-30T14:25:27.415Z,16.25
2018-12-30T14:27:54.090Z,16.29
2018-12-30T14:30:20.723Z,16.27
2018-12-30T14:32:47.384Z,16.28
2018-12-30T14:35:14.031Z,16.27
2018-12-30T14:37:40.691Z,16.24
2018-12-30T14:40:07.364Z,16.24
2018-12-30T14:42:34.035Z,16.22
2018-12-30T14:45:00.691Z,16.19
2018-12-30T14:47:27.352Z,16.18
2018-12-30T14:49:54.011Z,16.18
2018-12-30T14:52:20.660Z,16.16
2018-12-30T14:54:50.109Z,16.15
2018-12-30T14:57:16.776Z,16.14
2018-12-30T14:59:43.444Z,16.13
2018-12-30T15:02:10.126Z,16.14
2018-12-30T15:04:36.776Z,16.11
2018-12-30T15:07:03.426Z,16.07
2018-12-30T15:09:35.658Z,16.11
2018-12-30T15:11:56.745Z,16.08
2018-12-30T15:14:23.420Z,16.06
2018-12-30T15:16:50.079Z,16.05
2018-12-30T15:19:16.744Z,16.06
2018-12-30T15:21:43.432Z,16.06
2018-12-30T15:24:10.106Z,16.06
2018-12-30T15:26:36.761Z,16.04
2018-12-30T15:29:03.430Z,16.03
2018-12-30T15:31:30.089Z,16.05
2018-12-30T15:33:56.763Z,16.03
2018-12-30T15:36:23.429Z,16.02
2018-12-30T15:38:50.092Z,16.00
2018-12-30T15:41:16.747Z,15.97
2018-12-30T15:43:43.420Z,16.01
2018-12-30T15:46:10.092Z,15.98
2018-12-30T15:48:36.759Z,16.01
2018-12-30T15:51:03.502Z,16.04
2018-12-30T15:53:30.167Z,16.02
2018-12-30T15:55:56.882Z,16.00
2018-12-30T15:58:23.548Z,16.04
2018-12-30T16:00:50.218Z,16.01
2018-12-30T16:03:16.866Z,16.07
2018-12-30T16:05:43.529Z,16.03
2018-12-30T16:08:10.235Z,16.06
2018-12-30T16:10:36.896Z,16.09
2018-12-30T16:13:03.551Z,16.10
2018-12-30T16:15:30.221Z,16.10
2018-12-30T16:17:56.876Z,16.12
2018-12-30T16:20:23.536Z,16.12
2018-12-30T16:22:50.202Z,16.11
2018-12-30T16:25:16.868Z,16.16
2018-12-30T16:27:43.553Z,16.17
2018-12-30T16:30:10.213Z,16.19
2018-12-30T16:32:36.869Z,16.19
2018-12-30T16:35:03.533Z,16.23
2018-12-30T16:37:30.205Z,16.21
2018-12-30T16:39:56.898Z,16.25
2018-12-30T16:42:23.555Z,16.24
2018-12-30T16:44:50.241Z,16.26
2018-12-30T16:47:16.884Z,16.27
2018-12-30T16:49:43.612Z,16.28
2018-12-30T16:52:10.259Z,16.30
2018-12-30T16:54:38.401Z,16.31
2018-12-30T16:57:03.598Z,16.31
2018-12-30T16:59:30.267Z,16.33
2018-12-30T17:01:56.974Z,16.32
2018-12-30T17:04:23.641Z,16.37
2018-12-30T17:06:50.325Z,16.35
2018-12-30T17:09:17.056Z,16.38
2018-12-30T17:11:43.801Z,16.37
2018-12-30T17:14:10.465Z,16.41
2018-12-30T17:16:37.123Z,16.40
2018-12-30T17:19:03.780Z,16.41
2018-12-30T17:21:30.474Z,16.43
2018-12-30T17:23:57.134Z,16.41
2018-12-30T17:26:23.803Z,16.46
2018-12-30T17:28:50.455Z,16.48
2018-12-30T17:31:17.171Z,16.45
2018-12-30T17:33:43.826Z,16.49
2018-12-30T17:36:10.494Z,16.50
2018-12-30T17:38:37.191Z,16.49
2018-12-30T17:41:03.850Z,16.51
2018-12-30T17:43:30.510Z,16.52
2018-12-30T17:45:57.156Z,16.51
2018-12-30T17:48:23.872Z,16.51
2018-12-30T17:50:50.531Z,16.52
2018-12-30T17:53:17.203Z,16.55
2018-12-30T17:55:50.559Z,16.54
2018-12-30T17:58:10.527Z,16.56
2018-12-30T18:00:37.250Z,16.55
2018-12-30T18:03:03.901Z,16.56
2018-12-30T18:05:30.714Z,16.61
2018-12-30T18:07:57.380Z,16.57
2018-12-30T18:10:24.040Z,16.59
2018-12-30T18:12:50.814Z,16.61
2018-12-30T18:15:17.537Z,16.57
2018-12-30T18:17:44.192Z,16.60
2018-12-30T18:20:10.849Z,16.60
2018-12-30T18:22:37.509Z,16.62
2018-12-30T18:25:04.181Z,16.65
2018-12-30T18:27:30.902Z,16.67
2018-12-30T18:29:57.557Z,16.67
2018-12-30T18:32:24.224Z,16.64
2018-12-30T18:34:50.903Z,16.66
2018-12-30T18:37:17.557Z,16.65
2018-12-30T18:39:44.295Z,16.67
2018-12-30T18:42:10.960Z,16.66
2018-12-30T18:44:37.636Z,16.68
2018-12-30T18:47:04.326Z,16.67
2018-12-30T18:49:31.061Z,16.70
2018-12-30T18:51:57.723Z,16.67
2018-12-30T18:54:24.384Z,16.69
2018-12-30T18:56:51.121Z,16.70
2018-12-30T18:59:17.827Z,16.71
2018-12-30T19:01:47.414Z,16.70
2018-12-30T19:04:14.085Z,16.71
2018-12-30T19:06:40.755Z,16.71
2018-12-30T19:09:07.433Z,16.74
2018-12-30T19:11:34.176Z,16.74
2018-12-30T19:14:00.883Z,16.76
2018-12-30T19:16:27.492Z,16.78
2018-12-30T19:18:54.158Z,16.77
2018-12-30T19:21:20.824Z,16.78
2018-12-30T19:23:47.502Z,16.76
2018-12-30T19:26:14.602Z,16.78
2018-12-30T19:28:40.820Z,16.77
2018-12-30T19:31:07.483Z,16.78
2018-12-30T19:33:34.143Z,16.77
2018-12-30T19:36:00.873Z,16.71
2018-12-30T19:38:27.578Z,16.76
2018-12-30T19:40:54.240Z,16.76
2018-12-30T19:43:20.914Z,16.75
2018-12-30T19:45:47.573Z,16.71
2018-12-30T19:48:14.255Z,16.68
2018-12-30T19:50:40.919Z,16.67
2018-12-30T19:53:07.587Z,16.70
2018-12-30T19:55:34.234Z,16.69
2018-12-30T19:58:00.957Z,16.71
2018-12-30T20:00:27.618Z,16.75
2018-12-30T20:02:54.273Z,16.74
2018-12-30T20:05:20.978Z,16.70
2018-12-30T20:07:47.633Z,16.69
2018-12-30T20:10:14.365Z,16.71
2018-12-30T20:12:41.029Z,16.70
2018-12-30T20:15:07.803Z,16.67
2018-12-30T20:17:34.466Z,16.68
2018-12-30T20:20:02.291Z,16.67
2018-12-30T20:22:27.845Z,16.59
2018-12-30T20:24:54.553Z,16.65
2018-12-30T20:27:21.217Z,16.67
2018-12-30T20:29:47.890Z,16.67
2018-12-30T20:32:14.597Z,16.67
2018-12-30T20:34:41.250Z,16.66
2018-12-30T20:37:07.918Z,16.67
2018-12-30T20:39:34.593Z,16.67
2018-12-30T20:42:01.233Z,16.67
2018-12-30T20:44:27.896Z,16.67
2018-12-30T20:46:54.550Z,16.68
2018-12-30T20:49:21.246Z,16.67
2018-12-30T20:51:47.955Z,16.68
2018-12-30T20:54:14.609Z,16.67
2018-12-30T20:56:41.327Z,16.69
2018-12-30T20:59:07.974Z,16.70
2018-12-30T21:01:36.547Z,16.70
2018-12-30T21:04:01.406Z,16.71
2018-12-30T21:06:28.083Z,16.72
2018-12-30T21:08:54.732Z,16.75
2018-12-30T21:11:21.416Z,16.72
2018-12-30T21:13:48.101Z,16.75
2018-12-30T21:16:14.795Z,16.77
2018-12-30T21:18:41.471Z,16.77
2018-12-30T21:21:08.117Z,16.78
2018-12-30T21:23:34.851Z,16.80
2018-12-30T21:26:01.504Z,16.65
2018-12-30T21:28:28.183Z,16.87
2018-12-30T21:30:54.870Z,17.21
2018-12-30T21:33:21.598Z,17.34
2018-12-30T21:35:48.252Z,17.33
2018-12-30T21:38:14.992Z,17.17
2018-12-30T21:40:41.627Z,17.15
2018-12-30T21:43:08.290Z,17.11
2018-12-30T21:45:35.001Z,17.07
2018-12-30T21:48:01.659Z,17.07
2018-12-30T21:50:28.379Z,17.08
2018-12-30T21:52:55.024Z,17.07
2018-12-30T21:55:21.710Z,17.07
2018-12-30T21:57:48.394Z,17.03
2018-12-30T22:00:15.113Z,17.07
2018-12-30T22:02:41.767Z,17.06
2018-12-30T22:05:08.421Z,17.07
2018-12-30T22:07:35.117Z,17.09
2018-12-30T22:10:03.362Z,17.12
2018-12-30T22:12:28.428Z,17.16
2018-12-30T22:14:55.087Z,17.17
2018-12-30T22:17:21.796Z,17.17
2018-12-30T22:19:48.532Z,17.20
2018-12-30T22:22:15.202Z,17.22
2018-12-30T22:24:41.917Z,17.23
2018-12-30T22:27:08.579Z,17.26
2018-12-30T22:29:35.234Z,17.25
2018-12-30T22:32:01.925Z,17.25
2018-12-30T22:34:28.579Z,17.25
2018-12-30T22:36:55.236Z,17.27
2018-12-30T22:39:21.906Z,17.30
2018-12-30T22:41:48.574Z,17.29
2018-12-30T22:44:15.262Z,17.31
2018-12-30T22:46:41.916Z,17.29
2018-12-30T22:49:08.587Z,17.33
2018-12-30T22:51:35.248Z,17.30
2018-12-30T22:54:01.957Z,17.34
2018-12-30T22:56:28.603Z,17.32
2018-12-30T22:58:55.329Z,17.36
2018-12-30T23:01:21.998Z,17.34
2018-12-30T23:03:49.862Z,17.39
2018-12-30T23:06:15.368Z,17.37
2018-12-30T23:08:42.071Z,17.38
2018-12-30T23:11:08.771Z,17.36
2018-12-30T23:13:35.445Z,17.42
2018-12-30T23:16:02.151Z,17.41
2018-12-30T23:18:28.857Z,17.37
2018-12-30T23:20:55.513Z,17.40
2018-12-30T23:23:22.216Z,17.39
2018-12-30T23:25:48.873Z,17.39
2018-12-30T23:28:15.569Z,17.42
2018-12-30T23:30:42.231Z,17.41
2018-12-30T23:33:08.889Z,17.41
2018-12-30T23:35:35.531Z,17.38
2018-12-30T23:38:02.247Z,17.39
2018-12-30T23:40:28.908Z,17.41
2018-12-30T23:42:55.576Z,17.42
2018-12-30T23:45:22.286Z,17.42
2018-12-30T23:47:48.952Z,17.42
2018-12-30T23:50:15.624Z,17.41
2018-12-30T23:52:42.293Z,17.42
2018-12-30T23:55:08.944Z,17.41
2018-12-30T23:57:35.601Z,17.41
